sensor_id;sensor_type;location;lat;lon;timestamp;P1;durP1;ratioP1;P2;durP2;ratioP2
36233;SDS011;43467;50.890;5.982;2023-03-16T00:00:12;5.53;;;3.13;;
36233;SDS011;43467;50.890;5.982;2023-03-16T00:02:39;4.78;;;2.78;;
36233;SDS011;43467;50.890;5.982;2023-03-16T00:05:06;3.33;;;2.88;;
36233;SDS011;43467;50.890;5.982;2023-03-16T00:07:33;5.47;;;2.75;;
36233;SDS011;43467;50.890;5.982;2023-03-16T00:09:59;5.55;;;3.42;;
36233;SDS011;43467;50.890;5.982;2023-03-16T00:12:24;5.97;;;3.28;;
36233;SDS011;43467;50.890;5.982;2023-03-16T00:14:50;5.00;;;3.28;;
36233;SDS011;43467;50.890;5.982;2023-03-16T00:17:17;6.25;;;3.35;;
36233;SDS011;43467;50.890;5.982;2023-03-16T00:19:48;7.25;;;3.15;;
36233;SDS011;43467;50.890;5.982;2023-03-16T00:24:45;5.70;;;3.60;;
36233;SDS011;43467;50.890;5.982;2023-03-16T00:27:11;6.97;;;3.70;;
36233;SDS011;43467;50.890;5.982;2023-03-16T00:29:39;5.60;;;3.17;;
36233;SDS011;43467;50.890;5.982;2023-03-16T00:32:11;6.05;;;3.30;;
36233;SDS011;43467;50.890;5.982;2023-03-16T00:34:45;6.40;;;3.17;;
36233;SDS011;43467;50.890;5.982;2023-03-16T00:37:11;4.85;;;3.50;;
36233;SDS011;43467;50.890;5.982;2023-03-16T00:39:42;8.80;;;3.70;;
36233;SDS011;43467;50.890;5.982;2023-03-16T00:42:09;6.28;;;3.72;;
36233;SDS011;43467;50.890;5.982;2023-03-16T00:44:35;8.45;;;4.00;;
36233;SDS011;43467;50.890;5.982;2023-03-16T00:47:04;5.40;;;3.42;;
36233;SDS011;43467;50.890;5.982;2023-03-16T00:49:33;8.13;;;3.70;;
36233;SDS011;43467;50.890;5.982;2023-03-16T00:52:00;7.50;;;3.60;;
36233;SDS011;43467;50.890;5.982;2023-03-16T00:54:30;6.00;;;3.75;;
36233;SDS011;43467;50.890;5.982;2023-03-16T00:56:58;8.82;;;3.47;;
36233;SDS011;43467;50.890;5.982;2023-03-16T00:59:25;4.93;;;3.38;;
36233;SDS011;43467;50.890;5.982;2023-03-16T01:01:51;5.50;;;3.10;;
36233;SDS011;43467;50.890;5.982;2023-03-16T01:04:17;6.28;;;4.03;;
36233;SDS011;43467;50.890;5.982;2023-03-16T01:06:43;6.53;;;3.72;;
36233;SDS011;43467;50.890;5.982;2023-03-16T01:09:09;4.88;;;3.20;;
36233;SDS011;43467;50.890;5.982;2023-03-16T01:11:35;4.53;;;3.05;;
36233;SDS011;43467;50.890;5.982;2023-03-16T01:14:00;4.57;;;3.08;;
36233;SDS011;43467;50.890;5.982;2023-03-16T01:16:26;4.78;;;2.90;;
36233;SDS011;43467;50.890;5.982;2023-03-16T01:18:52;4.43;;;3.40;;
36233;SDS011;43467;50.890;5.982;2023-03-16T01:21:18;3.90;;;3.28;;
36233;SDS011;43467;50.890;5.982;2023-03-16T01:23:46;5.72;;;3.55;;
36233;SDS011;43467;50.890;5.982;2023-03-16T01:26:11;5.80;;;3.28;;
36233;SDS011;43467;50.890;5.982;2023-03-16T01:28:37;7.80;;;3.88;;
36233;SDS011;43467;50.890;5.982;2023-03-16T01:31:07;8.60;;;3.53;;
36233;SDS011;43467;50.890;5.982;2023-03-16T01:33:34;9.98;;;4.10;;
36233;SDS011;43467;50.890;5.982;2023-03-16T01:36:01;7.47;;;3.00;;
36233;SDS011;43467;50.890;5.982;2023-03-16T01:38:31;3.92;;;3.28;;
36233;SDS011;43467;50.890;5.982;2023-03-16T01:40:57;6.72;;;3.40;;
36233;SDS011;43467;50.890;5.982;2023-03-16T01:43:24;5.13;;;3.33;;
36233;SDS011;43467;50.890;5.982;2023-03-16T01:48:26;5.43;;;3.30;;
36233;SDS011;43467;50.890;5.982;2023-03-16T01:50:53;7.25;;;3.95;;
36233;SDS011;43467;50.890;5.982;2023-03-16T01:53:20;13.80;;;4.10;;
36233;SDS011;43467;50.890;5.982;2023-03-16T01:55:48;5.60;;;3.53;;
36233;SDS011;43467;50.890;5.982;2023-03-16T01:58:14;5.70;;;3.45;;
36233;SDS011;43467;50.890;5.982;2023-03-16T02:00:40;6.43;;;3.70;;
36233;SDS011;43467;50.890;5.982;2023-03-16T02:03:15;5.90;;;3.30;;
36233;SDS011;43467;50.890;5.982;2023-03-16T02:08:19;4.00;;;3.13;;
36233;SDS011;43467;50.890;5.982;2023-03-16T02:10:47;7.88;;;2.80;;
36233;SDS011;43467;50.890;5.982;2023-03-16T02:13:12;6.85;;;3.13;;
36233;SDS011;43467;50.890;5.982;2023-03-16T02:15:38;3.38;;;3.03;;
36233;SDS011;43467;50.890;5.982;2023-03-16T02:18:04;7.05;;;3.40;;
36233;SDS011;43467;50.890;5.982;2023-03-16T02:20:35;5.22;;;2.88;;
36233;SDS011;43467;50.890;5.982;2023-03-16T02:28:27;4.93;;;2.83;;
36233;SDS011;43467;50.890;5.982;2023-03-16T02:30:58;5.38;;;2.83;;
36233;SDS011;43467;50.890;5.982;2023-03-16T02:33:24;4.38;;;2.80;;
36233;SDS011;43467;50.890;5.982;2023-03-16T02:35:50;5.25;;;2.75;;
36233;SDS011;43467;50.890;5.982;2023-03-16T02:38:15;5.28;;;2.70;;
36233;SDS011;43467;50.890;5.982;2023-03-16T02:40:42;5.53;;;3.10;;
36233;SDS011;43467;50.890;5.982;2023-03-16T02:43:18;6.35;;;3.40;;
36233;SDS011;43467;50.890;5.982;2023-03-16T02:45:54;4.30;;;2.70;;
36233;SDS011;43467;50.890;5.982;2023-03-16T02:48:26;7.13;;;3.08;;
36233;SDS011;43467;50.890;5.982;2023-03-16T02:50:57;4.70;;;2.75;;
36233;SDS011;43467;50.890;5.982;2023-03-16T02:53:23;4.55;;;3.08;;
36233;SDS011;43467;50.890;5.982;2023-03-16T02:55:48;4.55;;;2.67;;
36233;SDS011;43467;50.890;5.982;2023-03-16T02:58:14;6.25;;;3.15;;
36233;SDS011;43467;50.890;5.982;2023-03-16T03:00:41;6.22;;;2.90;;
36233;SDS011;43467;50.890;5.982;2023-03-16T03:03:07;5.53;;;2.72;;
36233;SDS011;43467;50.890;5.982;2023-03-16T03:05:33;4.53;;;2.88;;
36233;SDS011;43467;50.890;5.982;2023-03-16T03:07:59;4.72;;;2.90;;
36233;SDS011;43467;50.890;5.982;2023-03-16T03:10:25;3.40;;;2.80;;
36233;SDS011;43467;50.890;5.982;2023-03-16T03:12:50;6.72;;;3.25;;
36233;SDS011;43467;50.890;5.982;2023-03-16T03:15:16;7.60;;;3.25;;
36233;SDS011;43467;50.890;5.982;2023-03-16T03:17:42;4.95;;;3.47;;
36233;SDS011;43467;50.890;5.982;2023-03-16T03:20:09;4.22;;;3.10;;
36233;SDS011;43467;50.890;5.982;2023-03-16T03:22:40;6.10;;;3.42;;
36233;SDS011;43467;50.890;5.982;2023-03-16T03:25:06;7.57;;;3.70;;
36233;SDS011;43467;50.890;5.982;2023-03-16T03:27:33;4.70;;;3.50;;
36233;SDS011;43467;50.890;5.982;2023-03-16T03:29:58;4.75;;;3.45;;
36233;SDS011;43467;50.890;5.982;2023-03-16T03:32:24;7.93;;;4.13;;
36233;SDS011;43467;50.890;5.982;2023-03-16T03:34:49;6.43;;;4.20;;
36233;SDS011;43467;50.890;5.982;2023-03-16T03:37:15;6.47;;;3.58;;
36233;SDS011;43467;50.890;5.982;2023-03-16T03:39:40;9.52;;;4.22;;
36233;SDS011;43467;50.890;5.982;2023-03-16T03:42:06;6.75;;;4.07;;
36233;SDS011;43467;50.890;5.982;2023-03-16T03:44:31;5.60;;;4.00;;
36233;SDS011;43467;50.890;5.982;2023-03-16T03:46:58;7.47;;;4.05;;
36233;SDS011;43467;50.890;5.982;2023-03-16T03:49:24;5.65;;;4.00;;
36233;SDS011;43467;50.890;5.982;2023-03-16T03:51:50;9.70;;;4.78;;
36233;SDS011;43467;50.890;5.982;2023-03-16T03:54:15;7.80;;;4.40;;
36233;SDS011;43467;50.890;5.982;2023-03-16T03:56:41;6.15;;;4.35;;
36233;SDS011;43467;50.890;5.982;2023-03-16T03:59:06;6.80;;;4.32;;
36233;SDS011;43467;50.890;5.982;2023-03-16T04:01:31;7.40;;;4.50;;
36233;SDS011;43467;50.890;5.982;2023-03-16T04:03:57;7.78;;;4.30;;
36233;SDS011;43467;50.890;5.982;2023-03-16T04:06:22;5.55;;;3.97;;
36233;SDS011;43467;50.890;5.982;2023-03-16T04:08:48;7.88;;;3.97;;
36233;SDS011;43467;50.890;5.982;2023-03-16T04:11:13;8.07;;;4.22;;
36233;SDS011;43467;50.890;5.982;2023-03-16T04:13:38;8.10;;;4.55;;
36233;SDS011;43467;50.890;5.982;2023-03-16T04:16:04;6.47;;;4.65;;
36233;SDS011;43467;50.890;5.982;2023-03-16T04:18:30;7.22;;;4.15;;
36233;SDS011;43467;50.890;5.982;2023-03-16T04:21:05;7.13;;;4.20;;
36233;SDS011;43467;50.890;5.982;2023-03-16T04:23:32;5.45;;;3.85;;
36233;SDS011;43467;50.890;5.982;2023-03-16T04:25:58;5.90;;;4.30;;
36233;SDS011;43467;50.890;5.982;2023-03-16T04:28:24;8.52;;;3.97;;
36233;SDS011;43467;50.890;5.982;2023-03-16T04:30:50;7.60;;;4.10;;
36233;SDS011;43467;50.890;5.982;2023-03-16T04:33:18;5.47;;;3.97;;
36233;SDS011;43467;50.890;5.982;2023-03-16T04:35:44;6.40;;;4.05;;
36233;SDS011;43467;50.890;5.982;2023-03-16T04:38:10;6.78;;;3.80;;
36233;SDS011;43467;50.890;5.982;2023-03-16T04:40:36;6.88;;;4.45;;
36233;SDS011;43467;50.890;5.982;2023-03-16T04:43:02;6.60;;;3.67;;
36233;SDS011;43467;50.890;5.982;2023-03-16T04:45:27;6.35;;;4.22;;
36233;SDS011;43467;50.890;5.982;2023-03-16T04:47:53;9.63;;;4.10;;
36233;SDS011;43467;50.890;5.982;2023-03-16T04:50:18;5.68;;;3.90;;
36233;SDS011;43467;50.890;5.982;2023-03-16T04:52:43;5.95;;;4.20;;
36233;SDS011;43467;50.890;5.982;2023-03-16T04:55:09;5.80;;;3.80;;
36233;SDS011;43467;50.890;5.982;2023-03-16T04:57:34;8.40;;;4.03;;
36233;SDS011;43467;50.890;5.982;2023-03-16T05:00:00;6.30;;;3.83;;
36233;SDS011;43467;50.890;5.982;2023-03-16T05:02:26;6.28;;;3.83;;
36233;SDS011;43467;50.890;5.982;2023-03-16T05:04:51;8.00;;;3.92;;
36233;SDS011;43467;50.890;5.982;2023-03-16T05:07:17;6.63;;;4.18;;
36233;SDS011;43467;50.890;5.982;2023-03-16T05:09:43;4.50;;;3.38;;
36233;SDS011;43467;50.890;5.982;2023-03-16T05:12:09;6.22;;;3.50;;
36233;SDS011;43467;50.890;5.982;2023-03-16T05:14:35;5.32;;;3.70;;
36233;SDS011;43467;50.890;5.982;2023-03-16T05:17:01;6.47;;;3.63;;
36233;SDS011;43467;50.890;5.982;2023-03-16T05:19:28;5.60;;;4.03;;
36233;SDS011;43467;50.890;5.982;2023-03-16T05:21:54;7.70;;;3.42;;
36233;SDS011;43467;50.890;5.982;2023-03-16T05:24:21;5.85;;;3.47;;
36233;SDS011;43467;50.890;5.982;2023-03-16T05:26:47;10.05;;;4.35;;
36233;SDS011;43467;50.890;5.982;2023-03-16T05:29:13;6.80;;;4.03;;
36233;SDS011;43467;50.890;5.982;2023-03-16T05:31:38;5.05;;;3.88;;
36233;SDS011;43467;50.890;5.982;2023-03-16T05:34:03;4.93;;;3.53;;
36233;SDS011;43467;50.890;5.982;2023-03-16T05:36:29;5.75;;;3.70;;
36233;SDS011;43467;50.890;5.982;2023-03-16T05:38:54;7.13;;;3.75;;
36233;SDS011;43467;50.890;5.982;2023-03-16T05:41:20;11.57;;;4.40;;
36233;SDS011;43467;50.890;5.982;2023-03-16T05:43:46;4.80;;;3.28;;
36233;SDS011;43467;50.890;5.982;2023-03-16T05:46:12;4.25;;;3.00;;
36233;SDS011;43467;50.890;5.982;2023-03-16T05:48:37;8.82;;;3.65;;
36233;SDS011;43467;50.890;5.982;2023-03-16T05:51:03;5.45;;;3.17;;
36233;SDS011;43467;50.890;5.982;2023-03-16T05:53:32;6.10;;;3.63;;
36233;SDS011;43467;50.890;5.982;2023-03-16T05:55:59;5.72;;;3.60;;
36233;SDS011;43467;50.890;5.982;2023-03-16T05:58:25;4.50;;;2.90;;
36233;SDS011;43467;50.890;5.982;2023-03-16T06:00:51;6.38;;;3.17;;
36233;SDS011;43467;50.890;5.982;2023-03-16T06:03:16;9.27;;;3.95;;
36233;SDS011;43467;50.890;5.982;2023-03-16T06:05:42;5.55;;;3.53;;
36233;SDS011;43467;50.890;5.982;2023-03-16T06:08:07;7.93;;;4.30;;
36233;SDS011;43467;50.890;5.982;2023-03-16T06:10:33;4.70;;;3.58;;
36233;SDS011;43467;50.890;5.982;2023-03-16T06:12:59;6.95;;;3.70;;
36233;SDS011;43467;50.890;5.982;2023-03-16T06:15:25;9.20;;;3.80;;
36233;SDS011;43467;50.890;5.982;2023-03-16T06:17:50;4.85;;;3.35;;
36233;SDS011;43467;50.890;5.982;2023-03-16T06:20:16;5.82;;;3.30;;
36233;SDS011;43467;50.890;5.982;2023-03-16T06:22:42;4.78;;;3.72;;
36233;SDS011;43467;50.890;5.982;2023-03-16T06:25:09;9.27;;;3.30;;
36233;SDS011;43467;50.890;5.982;2023-03-16T06:27:36;5.57;;;3.33;;
36233;SDS011;43467;50.890;5.982;2023-03-16T06:30:03;5.63;;;3.95;;
36233;SDS011;43467;50.890;5.982;2023-03-16T06:32:30;7.43;;;3.60;;
36233;SDS011;43467;50.890;5.982;2023-03-16T06:34:55;8.30;;;3.95;;
36233;SDS011;43467;50.890;5.982;2023-03-16T06:37:23;7.28;;;3.42;;
36233;SDS011;43467;50.890;5.982;2023-03-16T06:39:49;9.77;;;3.20;;
36233;SDS011;43467;50.890;5.982;2023-03-16T06:42:14;5.50;;;3.28;;
36233;SDS011;43467;50.890;5.982;2023-03-16T06:44:39;4.55;;;3.08;;
36233;SDS011;43467;50.890;5.982;2023-03-16T06:47:05;5.65;;;3.15;;
36233;SDS011;43467;50.890;5.982;2023-03-16T06:49:30;5.68;;;3.22;;
36233;SDS011;43467;50.890;5.982;2023-03-16T06:51:56;7.88;;;3.00;;
36233;SDS011;43467;50.890;5.982;2023-03-16T06:54:23;7.75;;;3.05;;
36233;SDS011;43467;50.890;5.982;2023-03-16T06:56:48;4.63;;;3.30;;
36233;SDS011;43467;50.890;5.982;2023-03-16T06:59:14;5.35;;;2.80;;
36233;SDS011;43467;50.890;5.982;2023-03-16T07:01:39;4.80;;;2.63;;
36233;SDS011;43467;50.890;5.982;2023-03-16T07:04:06;8.93;;;2.92;;
36233;SDS011;43467;50.890;5.982;2023-03-16T07:06:32;13.50;;;3.65;;
36233;SDS011;43467;50.890;5.982;2023-03-16T07:08:57;6.15;;;2.70;;
36233;SDS011;43467;50.890;5.982;2023-03-16T07:11:23;8.35;;;2.67;;
36233;SDS011;43467;50.890;5.982;2023-03-16T07:13:48;6.63;;;2.67;;
36233;SDS011;43467;50.890;5.982;2023-03-16T07:16:13;5.60;;;2.70;;
36233;SDS011;43467;50.890;5.982;2023-03-16T07:18:39;6.15;;;2.80;;
36233;SDS011;43467;50.890;5.982;2023-03-16T07:21:08;6.50;;;2.70;;
36233;SDS011;43467;50.890;5.982;2023-03-16T07:23:33;7.43;;;2.55;;
36233;SDS011;43467;50.890;5.982;2023-03-16T07:25:59;4.13;;;2.35;;
36233;SDS011;43467;50.890;5.982;2023-03-16T07:28:24;11.43;;;2.42;;
36233;SDS011;43467;50.890;5.982;2023-03-16T07:30:50;10.02;;;2.88;;
36233;SDS011;43467;50.890;5.982;2023-03-16T07:33:16;8.07;;;3.00;;
36233;SDS011;43467;50.890;5.982;2023-03-16T07:35:41;9.07;;;2.78;;
36233;SDS011;43467;50.890;5.982;2023-03-16T07:38:07;6.40;;;2.30;;
36233;SDS011;43467;50.890;5.982;2023-03-16T07:40:35;6.05;;;2.58;;
36233;SDS011;43467;50.890;5.982;2023-03-16T07:43:00;5.18;;;2.45;;
36233;SDS011;43467;50.890;5.982;2023-03-16T07:45:25;5.80;;;2.80;;
36233;SDS011;43467;50.890;5.982;2023-03-16T07:47:51;6.38;;;2.40;;
36233;SDS011;43467;50.890;5.982;2023-03-16T07:50:16;10.30;;;3.30;;
36233;SDS011;43467;50.890;5.982;2023-03-16T07:52:43;5.97;;;2.70;;
36233;SDS011;43467;50.890;5.982;2023-03-16T07:55:10;8.55;;;3.20;;
36233;SDS011;43467;50.890;5.982;2023-03-16T07:57:36;10.40;;;2.30;;
36233;SDS011;43467;50.890;5.982;2023-03-16T08:00:03;6.88;;;2.28;;
36233;SDS011;43467;50.890;5.982;2023-03-16T08:02:29;6.00;;;2.63;;
36233;SDS011;43467;50.890;5.982;2023-03-16T08:04:55;4.88;;;2.15;;
36233;SDS011;43467;50.890;5.982;2023-03-16T08:07:20;5.20;;;2.30;;
36233;SDS011;43467;50.890;5.982;2023-03-16T08:09:46;5.72;;;2.03;;
36233;SDS011;43467;50.890;5.982;2023-03-16T08:12:11;6.45;;;2.25;;
36233;SDS011;43467;50.890;5.982;2023-03-16T08:14:37;5.90;;;2.28;;
36233;SDS011;43467;50.890;5.982;2023-03-16T08:17:03;8.82;;;2.47;;
36233;SDS011;43467;50.890;5.982;2023-03-16T08:19:31;6.88;;;2.70;;
36233;SDS011;43467;50.890;5.982;2023-03-16T08:21:56;7.00;;;2.67;;
36233;SDS011;43467;50.890;5.982;2023-03-16T08:24:25;8.43;;;2.65;;
36233;SDS011;43467;50.890;5.982;2023-03-16T08:26:51;6.47;;;2.42;;
36233;SDS011;43467;50.890;5.982;2023-03-16T08:29:16;7.75;;;2.53;;
36233;SDS011;43467;50.890;5.982;2023-03-16T08:31:43;7.70;;;2.53;;
36233;SDS011;43467;50.890;5.982;2023-03-16T08:34:08;4.25;;;2.30;;
36233;SDS011;43467;50.890;5.982;2023-03-16T08:36:34;4.70;;;2.40;;
36233;SDS011;43467;50.890;5.982;2023-03-16T08:39:01;10.23;;;2.67;;
36233;SDS011;43467;50.890;5.982;2023-03-16T08:41:27;6.07;;;2.22;;
36233;SDS011;43467;50.890;5.982;2023-03-16T08:43:54;5.13;;;1.90;;
36233;SDS011;43467;50.890;5.982;2023-03-16T08:46:20;6.55;;;2.20;;
36233;SDS011;43467;50.890;5.982;2023-03-16T08:48:46;4.75;;;2.40;;
36233;SDS011;43467;50.890;5.982;2023-03-16T08:51:12;5.10;;;2.05;;
36233;SDS011;43467;50.890;5.982;2023-03-16T08:53:37;6.43;;;2.30;;
36233;SDS011;43467;50.890;5.982;2023-03-16T08:56:04;11.57;;;2.47;;
36233;SDS011;43467;50.890;5.982;2023-03-16T08:58:31;7.47;;;2.70;;
36233;SDS011;43467;50.890;5.982;2023-03-16T09:00:58;6.00;;;2.40;;
36233;SDS011;43467;50.890;5.982;2023-03-16T09:03:24;8.60;;;2.78;;
36233;SDS011;43467;50.890;5.982;2023-03-16T09:05:50;5.65;;;1.92;;
36233;SDS011;43467;50.890;5.982;2023-03-16T09:08:16;5.55;;;2.10;;
36233;SDS011;43467;50.890;5.982;2023-03-16T09:10:42;7.90;;;2.28;;
36233;SDS011;43467;50.890;5.982;2023-03-16T09:13:08;8.15;;;2.28;;
36233;SDS011;43467;50.890;5.982;2023-03-16T09:15:34;7.55;;;2.00;;
36233;SDS011;43467;50.890;5.982;2023-03-16T09:18:00;10.32;;;1.95;;
36233;SDS011;43467;50.890;5.982;2023-03-16T09:20:28;8.70;;;2.78;;
36233;SDS011;43467;50.890;5.982;2023-03-16T09:22:54;9.73;;;2.30;;
36233;SDS011;43467;50.890;5.982;2023-03-16T09:25:20;6.15;;;2.03;;
36233;SDS011;43467;50.890;5.982;2023-03-16T09:27:46;4.88;;;2.28;;
36233;SDS011;43467;50.890;5.982;2023-03-16T09:30:12;4.57;;;2.05;;
36233;SDS011;43467;50.890;5.982;2023-03-16T09:32:38;6.07;;;2.00;;
36233;SDS011;43467;50.890;5.982;2023-03-16T09:35:04;4.38;;;1.95;;
36233;SDS011;43467;50.890;5.982;2023-03-16T09:37:30;5.45;;;1.70;;
36233;SDS011;43467;50.890;5.982;2023-03-16T09:39:57;3.33;;;1.75;;
36233;SDS011;43467;50.890;5.982;2023-03-16T09:42:25;5.10;;;1.95;;
36233;SDS011;43467;50.890;5.982;2023-03-16T09:48:23;4.60;;;2.13;;
36233;SDS011;43467;50.890;5.982;2023-03-16T09:50:50;5.35;;;2.38;;
36233;SDS011;43467;50.890;5.982;2023-03-16T09:53:27;4.20;;;1.50;;
36233;SDS011;43467;50.890;5.982;2023-03-16T09:56:07;2.83;;;1.60;;
36233;SDS011;43467;50.890;5.982;2023-03-16T09:58:36;5.90;;;1.98;;
36233;SDS011;43467;50.890;5.982;2023-03-16T10:06:18;9.38;;;1.80;;
36233;SDS011;43467;50.890;5.982;2023-03-16T10:08:48;6.60;;;1.80;;
36233;SDS011;43467;50.890;5.982;2023-03-16T10:16:26;2.85;;;1.52;;
36233;SDS011;43467;50.890;5.982;2023-03-16T10:19:02;2.42;;;1.60;;
36233;SDS011;43467;50.890;5.982;2023-03-16T10:21:43;4.03;;;1.80;;
36233;SDS011;43467;50.890;5.982;2023-03-16T10:24:29;5.43;;;1.90;;
36233;SDS011;43467;50.890;5.982;2023-03-16T10:27:17;5.90;;;1.88;;
36233;SDS011;43467;50.890;5.982;2023-03-16T10:29:47;5.60;;;2.28;;
36233;SDS011;43467;50.890;5.982;2023-03-16T10:32:15;3.58;;;1.38;;
36233;SDS011;43467;50.890;5.982;2023-03-16T10:34:44;3.85;;;1.85;;
36233;SDS011;43467;50.890;5.982;2023-03-16T10:37:17;2.95;;;1.60;;
36233;SDS011;43467;50.890;5.982;2023-03-16T10:39:44;2.97;;;1.20;;
36233;SDS011;43467;50.890;5.982;2023-03-16T10:42:14;4.95;;;1.55;;
36233;SDS011;43467;50.890;5.982;2023-03-16T10:44:41;2.38;;;1.40;;
36233;SDS011;43467;50.890;5.982;2023-03-16T10:47:12;4.20;;;1.70;;
36233;SDS011;43467;50.890;5.982;2023-03-16T10:49:46;6.35;;;1.40;;
36233;SDS011;43467;50.890;5.982;2023-03-16T10:52:22;2.60;;;1.50;;
36233;SDS011;43467;50.890;5.982;2023-03-16T10:55:05;4.80;;;1.95;;
36233;SDS011;43467;50.890;5.982;2023-03-16T10:57:35;10.10;;;2.28;;
36233;SDS011;43467;50.890;5.982;2023-03-16T11:00:06;5.78;;;1.75;;
36233;SDS011;43467;50.890;5.982;2023-03-16T11:02:33;3.78;;;1.60;;
36233;SDS011;43467;50.890;5.982;2023-03-16T11:05:10;3.88;;;1.60;;
36233;SDS011;43467;50.890;5.982;2023-03-16T11:07:37;2.63;;;1.70;;
36233;SDS011;43467;50.890;5.982;2023-03-16T11:10:11;3.78;;;1.95;;
36233;SDS011;43467;50.890;5.982;2023-03-16T11:12:49;2.70;;;1.52;;
36233;SDS011;43467;50.890;5.982;2023-03-16T11:15:15;4.63;;;1.95;;
36233;SDS011;43467;50.890;5.982;2023-03-16T11:17:44;4.82;;;1.65;;
36233;SDS011;43467;50.890;5.982;2023-03-16T11:20:15;4.50;;;1.90;;
36233;SDS011;43467;50.890;5.982;2023-03-16T11:22:44;3.45;;;1.50;;
36233;SDS011;43467;50.890;5.982;2023-03-16T11:27:42;7.20;;;1.90;;
36233;SDS011;43467;50.890;5.982;2023-03-16T11:30:29;3.08;;;1.65;;
36233;SDS011;43467;50.890;5.982;2023-03-16T11:33:00;6.85;;;1.65;;
36233;SDS011;43467;50.890;5.982;2023-03-16T11:35:27;3.72;;;1.25;;
36233;SDS011;43467;50.890;5.982;2023-03-16T11:38:13;3.08;;;1.58;;
36233;SDS011;43467;50.890;5.982;2023-03-16T11:40:59;3.75;;;1.40;;
36233;SDS011;43467;50.890;5.982;2023-03-16T11:54:28;4.25;;;1.58;;
36233;SDS011;43467;50.890;5.982;2023-03-16T11:57:02;3.88;;;1.60;;
36233;SDS011;43467;50.890;5.982;2023-03-16T12:08:15;2.47;;;1.58;;
36233;SDS011;43467;50.890;5.982;2023-03-16T12:10:58;5.03;;;2.00;;
36233;SDS011;43467;50.890;5.982;2023-03-16T12:19:09;2.00;;;1.48;;
36233;SDS011;43467;50.890;5.982;2023-03-16T12:21:42;6.00;;;2.30;;
36233;SDS011;43467;50.890;5.982;2023-03-16T12:24:17;5.38;;;1.90;;
36233;SDS011;43467;50.890;5.982;2023-03-16T12:26:48;3.45;;;1.67;;
36233;SDS011;43467;50.890;5.982;2023-03-16T12:29:18;2.95;;;1.58;;
36233;SDS011;43467;50.890;5.982;2023-03-16T12:31:56;2.92;;;1.15;;
36233;SDS011;43467;50.890;5.982;2023-03-16T12:48:07;2.72;;;1.45;;
36233;SDS011;43467;50.890;5.982;2023-03-16T12:50:58;4.95;;;2.08;;
36233;SDS011;43467;50.890;5.982;2023-03-16T12:53:52;2.05;;;1.10;;
36233;SDS011;43467;50.890;5.982;2023-03-16T12:56:26;5.65;;;1.50;;
36233;SDS011;43467;50.890;5.982;2023-03-16T12:58:55;4.10;;;1.50;;
36233;SDS011;43467;50.890;5.982;2023-03-16T13:01:30;3.22;;;1.48;;
36233;SDS011;43467;50.890;5.982;2023-03-16T13:04:05;4.60;;;1.70;;
36233;SDS011;43467;50.890;5.982;2023-03-16T13:06:36;3.70;;;1.83;;
36233;SDS011;43467;50.890;5.982;2023-03-16T13:09:06;1.55;;;1.10;;
36233;SDS011;43467;50.890;5.982;2023-03-16T13:11:45;2.95;;;1.67;;
36233;SDS011;43467;50.890;5.982;2023-03-16T13:14:36;2.03;;;1.25;;
36233;SDS011;43467;50.890;5.982;2023-03-16T13:17:26;3.70;;;1.52;;
36233;SDS011;43467;50.890;5.982;2023-03-16T13:19:59;2.60;;;1.30;;
36233;SDS011;43467;50.890;5.982;2023-03-16T13:23:44;5.05;;;2.25;;
36233;SDS011;43467;50.890;5.982;2023-03-16T13:25:43;4.40;;;1.88;;
36233;SDS011;43467;50.890;5.982;2023-03-16T13:28:21;2.22;;;1.40;;
36233;SDS011;43467;50.890;5.982;2023-03-16T13:30:53;2.80;;;1.38;;
36233;SDS011;43467;50.890;5.982;2023-03-16T13:33:22;3.95;;;1.80;;
36233;SDS011;43467;50.890;5.982;2023-03-16T13:35:51;3.35;;;1.63;;
36233;SDS011;43467;50.890;5.982;2023-03-16T13:38:22;2.05;;;1.00;;
36233;SDS011;43467;50.890;5.982;2023-03-16T13:41:01;2.85;;;1.23;;
36233;SDS011;43467;50.890;5.982;2023-03-16T13:43:34;3.92;;;1.25;;
36233;SDS011;43467;50.890;5.982;2023-03-16T13:46:13;2.83;;;1.40;;
36233;SDS011;43467;50.890;5.982;2023-03-16T13:48:43;2.53;;;1.23;;
36233;SDS011;43467;50.890;5.982;2023-03-16T13:51:17;2.53;;;1.27;;
36233;SDS011;43467;50.890;5.982;2023-03-16T13:53:44;2.65;;;1.30;;
36233;SDS011;43467;50.890;5.982;2023-03-16T13:56:15;3.47;;;1.33;;
36233;SDS011;43467;50.890;5.982;2023-03-16T13:58:46;2.55;;;1.23;;
36233;SDS011;43467;50.890;5.982;2023-03-16T14:01:24;5.03;;;1.73;;
36233;SDS011;43467;50.890;5.982;2023-03-16T14:03:52;2.63;;;1.20;;
36233;SDS011;43467;50.890;5.982;2023-03-16T14:06:27;4.20;;;1.30;;
36233;SDS011;43467;50.890;5.982;2023-03-16T14:11:25;2.80;;;1.10;;
36233;SDS011;43467;50.890;5.982;2023-03-16T14:13:53;3.35;;;1.35;;
36233;SDS011;43467;50.890;5.982;2023-03-16T14:16:21;2.50;;;1.05;;
36233;SDS011;43467;50.890;5.982;2023-03-16T14:18:53;1.95;;;0.90;;
36233;SDS011;43467;50.890;5.982;2023-03-16T14:21:23;5.05;;;1.52;;
36233;SDS011;43467;50.890;5.982;2023-03-16T14:24:01;3.70;;;2.00;;
36233;SDS011;43467;50.890;5.982;2023-03-16T14:26:41;3.17;;;1.23;;
36233;SDS011;43467;50.890;5.982;2023-03-16T14:29:17;3.35;;;1.20;;
36233;SDS011;43467;50.890;5.982;2023-03-16T14:31:48;3.03;;;1.55;;
36233;SDS011;43467;50.890;5.982;2023-03-16T14:34:18;4.05;;;1.17;;
36233;SDS011;43467;50.890;5.982;2023-03-16T14:36:46;3.78;;;1.10;;
36233;SDS011;43467;50.890;5.982;2023-03-16T14:39:12;3.03;;;1.33;;
36233;SDS011;43467;50.890;5.982;2023-03-16T14:41:41;2.97;;;1.55;;
36233;SDS011;43467;50.890;5.982;2023-03-16T14:44:18;5.63;;;1.30;;
36233;SDS011;43467;50.890;5.982;2023-03-16T14:46:46;2.38;;;0.93;;
36233;SDS011;43467;50.890;5.982;2023-03-16T14:49:26;2.92;;;1.42;;
36233;SDS011;43467;50.890;5.982;2023-03-16T14:51:54;2.78;;;1.15;;
36233;SDS011;43467;50.890;5.982;2023-03-16T14:54:24;1.05;;;0.90;;
36233;SDS011;43467;50.890;5.982;2023-03-16T14:56:57;3.50;;;1.35;;
36233;SDS011;43467;50.890;5.982;2023-03-16T14:59:27;2.08;;;1.23;;
36233;SDS011;43467;50.890;5.982;2023-03-16T15:01:52;2.22;;;1.38;;
36233;SDS011;43467;50.890;5.982;2023-03-16T15:04:24;5.10;;;1.10;;
36233;SDS011;43467;50.890;5.982;2023-03-16T15:06:52;1.35;;;1.00;;
36233;SDS011;43467;50.890;5.982;2023-03-16T15:09:40;2.40;;;1.10;;
36233;SDS011;43467;50.890;5.982;2023-03-16T15:12:14;4.32;;;1.38;;
36233;SDS011;43467;50.890;5.982;2023-03-16T15:14:40;1.85;;;1.23;;
36233;SDS011;43467;50.890;5.982;2023-03-16T15:17:25;3.40;;;1.10;;
36233;SDS011;43467;50.890;5.982;2023-03-16T15:19:51;3.63;;;1.30;;
36233;SDS011;43467;50.890;5.982;2023-03-16T15:22:16;1.70;;;0.80;;
36233;SDS011;43467;50.890;5.982;2023-03-16T15:24:49;2.83;;;1.10;;
36233;SDS011;43467;50.890;5.982;2023-03-16T15:27:24;1.95;;;0.90;;
36233;SDS011;43467;50.890;5.982;2023-03-16T15:29:58;2.47;;;1.00;;
36233;SDS011;43467;50.890;5.982;2023-03-16T15:32:23;2.88;;;1.17;;
36233;SDS011;43467;50.890;5.982;2023-03-16T15:34:49;4.43;;;2.10;;
36233;SDS011;43467;50.890;5.982;2023-03-16T15:37:15;6.75;;;1.13;;
36233;SDS011;43467;50.890;5.982;2023-03-16T15:39:43;2.20;;;1.48;;
36233;SDS011;43467;50.890;5.982;2023-03-16T15:42:17;3.90;;;1.45;;
36233;SDS011;43467;50.890;5.982;2023-03-16T15:44:44;3.13;;;1.17;;
36233;SDS011;43467;50.890;5.982;2023-03-16T15:47:12;2.65;;;1.10;;
36233;SDS011;43467;50.890;5.982;2023-03-16T15:49:38;5.25;;;1.20;;
36233;SDS011;43467;50.890;5.982;2023-03-16T15:52:05;1.98;;;1.20;;
36233;SDS011;43467;50.890;5.982;2023-03-16T15:54:31;3.65;;;1.40;;
36233;SDS011;43467;50.890;5.982;2023-03-16T15:56:59;1.30;;;0.90;;
36233;SDS011;43467;50.890;5.982;2023-03-16T15:59:25;2.95;;;1.20;;
36233;SDS011;43467;50.890;5.982;2023-03-16T16:01:58;2.38;;;0.93;;
36233;SDS011;43467;50.890;5.982;2023-03-16T16:04:24;1.92;;;0.98;;
36233;SDS011;43467;50.890;5.982;2023-03-16T16:06:49;2.65;;;1.05;;